sensor_id;sensor_type;location;lat;lon;timestamp;P1;durP1;ratioP1;P2;durP2;ratioP2
72404;SDS011;60395;52.020;113.548;2022-08-16T00:02:56;24.60;;;12.30;;
72404;SDS011;60395;52.020;113.548;2022-08-16T00:05:59;24.95;;;11.20;;
72404;SDS011;60395;52.020;113.548;2022-08-16T00:09:03;26.13;;;12.00;;
72404;SDS011;60395;52.020;113.548;2022-08-16T00:12:06;22.70;;;11.15;;
72404;SDS011;60395;52.020;113.548;2022-08-16T00:15:11;30.50;;;12.30;;
72404;SDS011;60395;52.020;113.548;2022-08-16T00:18:18;56.00;;;14.02;;
72404;SDS011;60395;52.020;113.548;2022-08-16T00:21:29;31.83;;;11.82;;
72404;SDS011;60395;52.020;113.548;2022-08-16T00:24:33;25.07;;;12.47;;
72404;SDS011;60395;52.020;113.548;2022-08-16T00:27:36;22.98;;;10.80;;
72404;SDS011;60395;52.020;113.548;2022-08-16T00:30:39;34.53;;;11.48;;
72404;SDS011;60395;52.020;113.548;2022-08-16T00:33:45;37.85;;;13.38;;
72404;SDS011;60395;52.020;113.548;2022-08-16T00:36:51;34.55;;;13.38;;
72404;SDS011;60395;52.020;113.548;2022-08-16T00:39:56;36.22;;;11.82;;
72404;SDS011;60395;52.020;113.548;2022-08-16T00:42:59;17.85;;;10.77;;
72404;SDS011;60395;52.020;113.548;2022-08-16T00:49:36;24.98;;;10.75;;
72404;SDS011;60395;52.020;113.548;2022-08-16T00:52:45;20.52;;;11.88;;
72404;SDS011;60395;52.020;113.548;2022-08-16T00:55:54;43.63;;;13.48;;
72404;SDS011;60395;52.020;113.548;2022-08-16T00:59:00;18.10;;;11.00;;
72404;SDS011;60395;52.020;113.548;2022-08-16T01:02:06;22.75;;;10.20;;
72404;SDS011;60395;52.020;113.548;2022-08-16T01:05:30;21.08;;;11.07;;
72404;SDS011;60395;52.020;113.548;2022-08-16T01:08:34;22.23;;;11.38;;
72404;SDS011;60395;52.020;113.548;2022-08-16T01:11:41;18.70;;;10.95;;
72404;SDS011;60395;52.020;113.548;2022-08-16T01:14:57;23.75;;;11.20;;
72404;SDS011;60395;52.020;113.548;2022-08-16T01:18:03;24.02;;;10.63;;
72404;SDS011;60395;52.020;113.548;2022-08-16T01:21:31;18.98;;;11.20;;
72404;SDS011;60395;52.020;113.548;2022-08-16T01:24:47;19.20;;;11.05;;
72404;SDS011;60395;52.020;113.548;2022-08-16T01:27:59;20.73;;;11.85;;
72404;SDS011;60395;52.020;113.548;2022-08-16T01:31:06;19.38;;;11.15;;
72404;SDS011;60395;52.020;113.548;2022-08-16T01:37:26;22.42;;;12.23;;
72404;SDS011;60395;52.020;113.548;2022-08-16T01:40:38;18.50;;;11.02;;
72404;SDS011;60395;52.020;113.548;2022-08-16T01:43:42;17.20;;;10.55;;
72404;SDS011;60395;52.020;113.548;2022-08-16T01:46:55;28.40;;;11.48;;
72404;SDS011;60395;52.020;113.548;2022-08-16T01:50:00;25.45;;;12.00;;
72404;SDS011;60395;52.020;113.548;2022-08-16T01:53:26;27.90;;;11.13;;
72404;SDS011;60395;52.020;113.548;2022-08-16T01:56:39;20.40;;;10.68;;
72404;SDS011;60395;52.020;113.548;2022-08-16T01:59:43;24.20;;;12.05;;
72404;SDS011;60395;52.020;113.548;2022-08-16T02:02:50;23.52;;;11.85;;
72404;SDS011;60395;52.020;113.548;2022-08-16T02:05:54;24.40;;;11.90;;
72404;SDS011;60395;52.020;113.548;2022-08-16T02:08:58;16.73;;;10.88;;
72404;SDS011;60395;52.020;113.548;2022-08-16T02:12:03;18.83;;;11.98;;
72404;SDS011;60395;52.020;113.548;2022-08-16T02:15:29;18.77;;;12.85;;
72404;SDS011;60395;52.020;113.548;2022-08-16T02:18:45;23.55;;;12.32;;
72404;SDS011;60395;52.020;113.548;2022-08-16T02:21:50;25.67;;;12.32;;
72404;SDS011;60395;52.020;113.548;2022-08-16T02:25:15;22.15;;;11.25;;
72404;SDS011;60395;52.020;113.548;2022-08-16T02:28:18;19.75;;;11.27;;
72404;SDS011;60395;52.020;113.548;2022-08-16T02:31:25;15.23;;;10.50;;
72404;SDS011;60395;52.020;113.548;2022-08-16T02:34:48;11.27;;;7.32;;
72404;SDS011;60395;52.020;113.548;2022-08-16T02:37:57;10.73;;;7.20;;
72404;SDS011;60395;52.020;113.548;2022-08-16T02:41:11;11.23;;;7.30;;
72404;SDS011;60395;52.020;113.548;2022-08-16T02:44:16;13.38;;;9.73;;
72404;SDS011;60395;52.020;113.548;2022-08-16T02:47:23;8.88;;;6.05;;
72404;SDS011;60395;52.020;113.548;2022-08-16T02:50:27;8.85;;;6.30;;
72404;SDS011;60395;52.020;113.548;2022-08-16T02:53:50;8.48;;;5.55;;
72404;SDS011;60395;52.020;113.548;2022-08-16T02:56:57;7.95;;;4.57;;
72404;SDS011;60395;52.020;113.548;2022-08-16T03:00:00;5.43;;;3.92;;
72404;SDS011;60395;52.020;113.548;2022-08-16T03:03:30;9.18;;;4.10;;
72404;SDS011;60395;52.020;113.548;2022-08-16T03:06:53;7.82;;;4.00;;
72404;SDS011;60395;52.020;113.548;2022-08-16T03:10:11;7.38;;;3.97;;
72404;SDS011;60395;52.020;113.548;2022-08-16T03:13:21;6.85;;;4.00;;
72404;SDS011;60395;52.020;113.548;2022-08-16T03:16:25;6.25;;;4.15;;
72404;SDS011;60395;52.020;113.548;2022-08-16T03:19:41;8.30;;;4.05;;
72404;SDS011;60395;52.020;113.548;2022-08-16T03:22:57;6.30;;;4.20;;
72404;SDS011;60395;52.020;113.548;2022-08-16T03:26:03;5.20;;;3.90;;
72404;SDS011;60395;52.020;113.548;2022-08-16T03:29:07;9.15;;;4.25;;
72404;SDS011;60395;52.020;113.548;2022-08-16T03:32:10;7.97;;;3.90;;
72404;SDS011;60395;52.020;113.548;2022-08-16T03:35:15;9.55;;;4.05;;
72404;SDS011;60395;52.020;113.548;2022-08-16T03:38:21;7.35;;;4.30;;
72404;SDS011;60395;52.020;113.548;2022-08-16T03:41:40;7.43;;;3.97;;
72404;SDS011;60395;52.020;113.548;2022-08-16T03:44:54;5.32;;;3.97;;
72404;SDS011;60395;52.020;113.548;2022-08-16T03:48:08;7.53;;;4.43;;
72404;SDS011;60395;52.020;113.548;2022-08-16T03:51:21;4.13;;;3.40;;
72404;SDS011;60395;52.020;113.548;2022-08-16T03:54:32;4.22;;;2.83;;
72404;SDS011;60395;52.020;113.548;2022-08-16T03:57:38;4.93;;;2.50;;
72404;SDS011;60395;52.020;113.548;2022-08-16T04:00:43;4.20;;;1.95;;
72404;SDS011;60395;52.020;113.548;2022-08-16T04:03:57;3.55;;;1.95;;
72404;SDS011;60395;52.020;113.548;2022-08-16T04:07:03;5.05;;;2.08;;
72404;SDS011;60395;52.020;113.548;2022-08-16T04:10:13;6.45;;;2.30;;
72404;SDS011;60395;52.020;113.548;2022-08-16T04:13:36;5.03;;;2.25;;
72404;SDS011;60395;52.020;113.548;2022-08-16T04:17:02;6.60;;;2.20;;
72404;SDS011;60395;52.020;113.548;2022-08-16T04:20:10;5.78;;;1.95;;
72404;SDS011;60395;52.020;113.548;2022-08-16T04:23:38;5.35;;;2.22;;
72404;SDS011;60395;52.020;113.548;2022-08-16T04:26:43;4.28;;;1.77;;
72404;SDS011;60395;52.020;113.548;2022-08-16T04:29:49;4.28;;;1.90;;
72404;SDS011;60395;52.020;113.548;2022-08-16T04:32:53;6.45;;;1.90;;
72404;SDS011;60395;52.020;113.548;2022-08-16T04:36:02;5.75;;;2.15;;
72404;SDS011;60395;52.020;113.548;2022-08-16T04:39:07;7.10;;;2.20;;
72404;SDS011;60395;52.020;113.548;2022-08-16T04:42:17;8.65;;;1.92;;
72404;SDS011;60395;52.020;113.548;2022-08-16T04:45:28;3.35;;;1.30;;
72404;SDS011;60395;52.020;113.548;2022-08-16T04:48:40;6.68;;;1.50;;
72404;SDS011;60395;52.020;113.548;2022-08-16T04:51:45;5.78;;;1.45;;
72404;SDS011;60395;52.020;113.548;2022-08-16T04:54:56;2.90;;;1.42;;
72404;SDS011;60395;52.020;113.548;2022-08-16T05:01:24;2.65;;;1.33;;
72404;SDS011;60395;52.020;113.548;2022-08-16T05:04:48;5.70;;;1.60;;
72404;SDS011;60395;52.020;113.548;2022-08-16T05:07:52;2.00;;;1.20;;
72404;SDS011;60395;52.020;113.548;2022-08-16T05:11:04;3.92;;;1.50;;
72404;SDS011;60395;52.020;113.548;2022-08-16T05:14:10;4.20;;;1.40;;
72404;SDS011;60395;52.020;113.548;2022-08-16T05:17:33;6.68;;;2.08;;
72404;SDS011;60395;52.020;113.548;2022-08-16T05:20:43;5.35;;;2.00;;
72404;SDS011;60395;52.020;113.548;2022-08-16T05:24:02;6.55;;;2.80;;
72404;SDS011;60395;52.020;113.548;2022-08-16T05:27:08;7.22;;;3.03;;
72404;SDS011;60395;52.020;113.548;2022-08-16T05:30:14;3.97;;;1.90;;
72404;SDS011;60395;52.020;113.548;2022-08-16T05:33:42;5.20;;;1.70;;
72404;SDS011;60395;52.020;113.548;2022-08-16T05:36:56;3.60;;;1.52;;
72404;SDS011;60395;52.020;113.548;2022-08-16T05:40:09;1.85;;;1.45;;
72404;SDS011;60395;52.020;113.548;2022-08-16T05:43:15;4.32;;;1.63;;
72404;SDS011;60395;52.020;113.548;2022-08-16T05:46:18;5.22;;;1.60;;
72404;SDS011;60395;52.020;113.548;2022-08-16T05:49:39;4.22;;;1.75;;
72404;SDS011;60395;52.020;113.548;2022-08-16T05:52:45;2.72;;;1.50;;
72404;SDS011;60395;52.020;113.548;2022-08-16T05:55:50;8.32;;;1.50;;
72404;SDS011;60395;52.020;113.548;2022-08-16T05:58:54;5.00;;;1.60;;
72404;SDS011;60395;52.020;113.548;2022-08-16T06:01:57;7.13;;;1.70;;
72404;SDS011;60395;52.020;113.548;2022-08-16T06:05:06;5.22;;;1.77;;
72404;SDS011;60395;52.020;113.548;2022-08-16T06:08:11;4.93;;;1.73;;
72404;SDS011;60395;52.020;113.548;2022-08-16T06:11:36;2.25;;;1.58;;
72404;SDS011;60395;52.020;113.548;2022-08-16T06:14:44;2.88;;;2.30;;
72404;SDS011;60395;52.020;113.548;2022-08-16T06:17:54;5.60;;;1.83;;
72404;SDS011;60395;52.020;113.548;2022-08-16T06:20:59;7.85;;;1.60;;
72404;SDS011;60395;52.020;113.548;2022-08-16T06:24:03;3.75;;;1.83;;
72404;SDS011;60395;52.020;113.548;2022-08-16T06:27:27;9.02;;;2.20;;
72404;SDS011;60395;52.020;113.548;2022-08-16T06:30:41;8.18;;;2.45;;
72404;SDS011;60395;52.020;113.548;2022-08-16T06:33:48;5.05;;;2.00;;
72404;SDS011;60395;52.020;113.548;2022-08-16T06:36:54;6.20;;;2.15;;
72404;SDS011;60395;52.020;113.548;2022-08-16T06:40:02;5.30;;;2.10;;
72404;SDS011;60395;52.020;113.548;2022-08-16T06:43:19;7.72;;;2.33;;
72404;SDS011;60395;52.020;113.548;2022-08-16T06:46:40;7.55;;;2.28;;
72404;SDS011;60395;52.020;113.548;2022-08-16T06:49:53;8.73;;;2.65;;
72404;SDS011;60395;52.020;113.548;2022-08-16T06:53:08;4.43;;;2.00;;
72404;SDS011;60395;52.020;113.548;2022-08-16T06:56:26;5.38;;;2.05;;
72404;SDS011;60395;52.020;113.548;2022-08-16T06:59:39;3.40;;;1.92;;
72404;SDS011;60395;52.020;113.548;2022-08-16T07:03:07;3.55;;;1.65;;
72404;SDS011;60395;52.020;113.548;2022-08-16T07:06:30;4.45;;;1.85;;
72404;SDS011;60395;52.020;113.548;2022-08-16T07:09:39;14.10;;;3.85;;
72404;SDS011;60395;52.020;113.548;2022-08-16T07:12:42;14.25;;;3.53;;
72404;SDS011;60395;52.020;113.548;2022-08-16T07:16:05;17.70;;;3.92;;
72404;SDS011;60395;52.020;113.548;2022-08-16T07:19:18;14.18;;;2.78;;
72404;SDS011;60395;52.020;113.548;2022-08-16T07:22:21;10.32;;;2.88;;
72404;SDS011;60395;52.020;113.548;2022-08-16T07:25:50;11.18;;;2.70;;
72404;SDS011;60395;52.020;113.548;2022-08-16T07:28:56;7.57;;;2.50;;
72404;SDS011;60395;52.020;113.548;2022-08-16T07:31:59;8.40;;;2.50;;
72404;SDS011;60395;52.020;113.548;2022-08-16T07:35:05;6.20;;;2.70;;
72404;SDS011;60395;52.020;113.548;2022-08-16T07:38:09;7.22;;;2.20;;
72404;SDS011;60395;52.020;113.548;2022-08-16T07:41:19;3.45;;;2.20;;
72404;SDS011;60395;52.020;113.548;2022-08-16T07:44:31;4.05;;;2.10;;
72404;SDS011;60395;52.020;113.548;2022-08-16T07:47:52;5.68;;;2.10;;
72404;SDS011;60395;52.020;113.548;2022-08-16T07:50:56;5.40;;;2.20;;
72404;SDS011;60395;52.020;113.548;2022-08-16T07:54:08;5.28;;;2.63;;
72404;SDS011;60395;52.020;113.548;2022-08-16T07:57:28;16.67;;;2.33;;
72404;SDS011;60395;52.020;113.548;2022-08-16T08:00:37;4.15;;;2.08;;
72404;SDS011;60395;52.020;113.548;2022-08-16T08:03:41;5.00;;;2.17;;
72404;SDS011;60395;52.020;113.548;2022-08-16T08:06:55;6.63;;;2.30;;
72404;SDS011;60395;52.020;113.548;2022-08-16T08:09:58;8.00;;;2.28;;
72404;SDS011;60395;52.020;113.548;2022-08-16T08:13:02;6.10;;;2.00;;
72404;SDS011;60395;52.020;113.548;2022-08-16T08:16:08;4.97;;;2.10;;
72404;SDS011;60395;52.020;113.548;2022-08-16T08:19:21;12.98;;;2.63;;
72404;SDS011;60395;52.020;113.548;2022-08-16T08:22:28;6.25;;;2.63;;
72404;SDS011;60395;52.020;113.548;2022-08-16T08:25:35;6.43;;;2.90;;
72404;SDS011;60395;52.020;113.548;2022-08-16T08:29:00;7.93;;;2.40;;
72404;SDS011;60395;52.020;113.548;2022-08-16T08:32:10;8.80;;;2.50;;
72404;SDS011;60395;52.020;113.548;2022-08-16T08:35:37;5.03;;;2.53;;
72404;SDS011;60395;52.020;113.548;2022-08-16T08:38:43;7.13;;;2.28;;
72404;SDS011;60395;52.020;113.548;2022-08-16T08:41:51;5.63;;;2.25;;
72404;SDS011;60395;52.020;113.548;2022-08-16T08:44:57;7.90;;;5.80;;
72404;SDS011;60395;52.020;113.548;2022-08-16T08:48:01;4.70;;;2.40;;
72404;SDS011;60395;52.020;113.548;2022-08-16T08:51:08;8.25;;;3.35;;
72404;SDS011;60395;52.020;113.548;2022-08-16T08:54:24;5.95;;;2.50;;
72404;SDS011;60395;52.020;113.548;2022-08-16T08:57:29;5.80;;;2.75;;
72404;SDS011;60395;52.020;113.548;2022-08-16T09:00:50;6.88;;;2.83;;
72404;SDS011;60395;52.020;113.548;2022-08-16T09:03:55;11.95;;;2.80;;
72404;SDS011;60395;52.020;113.548;2022-08-16T09:06:58;15.02;;;3.15;;
72404;SDS011;60395;52.020;113.548;2022-08-16T09:10:05;11.23;;;3.97;;
72404;SDS011;60395;52.020;113.548;2022-08-16T09:13:21;3.53;;;2.30;;
72404;SDS011;60395;52.020;113.548;2022-08-16T09:19:49;9.73;;;3.13;;
72404;SDS011;60395;52.020;113.548;2022-08-16T09:22:57;6.25;;;2.50;;
72404;SDS011;60395;52.020;113.548;2022-08-16T09:26:13;6.55;;;2.63;;
72404;SDS011;60395;52.020;113.548;2022-08-16T09:29:40;11.38;;;3.80;;
72404;SDS011;60395;52.020;113.548;2022-08-16T09:32:48;8.18;;;2.00;;
72404;SDS011;60395;52.020;113.548;2022-08-16T09:35:54;3.60;;;2.42;;
72404;SDS011;60395;52.020;113.548;2022-08-16T09:38:57;3.58;;;2.00;;
72404;SDS011;60395;52.020;113.548;2022-08-16T09:42:03;19.02;;;3.15;;
72404;SDS011;60395;52.020;113.548;2022-08-16T09:45:11;3.58;;;2.20;;
72404;SDS011;60395;52.020;113.548;2022-08-16T09:48:19;3.67;;;2.53;;
72404;SDS011;60395;52.020;113.548;2022-08-16T09:51:42;11.88;;;2.90;;
72404;SDS011;60395;52.020;113.548;2022-08-16T09:54:45;6.78;;;2.50;;
72404;SDS011;60395;52.020;113.548;2022-08-16T09:57:51;14.27;;;4.72;;
72404;SDS011;60395;52.020;113.548;2022-08-16T10:00:54;6.32;;;2.67;;
72404;SDS011;60395;52.020;113.548;2022-08-16T10:03:57;4.25;;;2.47;;
72404;SDS011;60395;52.020;113.548;2022-08-16T10:07:03;4.35;;;2.33;;
72404;SDS011;60395;52.020;113.548;2022-08-16T10:10:19;4.63;;;2.42;;
72404;SDS011;60395;52.020;113.548;2022-08-16T10:13:31;3.85;;;2.08;;
72404;SDS011;60395;52.020;113.548;2022-08-16T10:16:35;2.70;;;2.20;;
72404;SDS011;60395;52.020;113.548;2022-08-16T10:19:39;3.83;;;2.42;;
72404;SDS011;60395;52.020;113.548;2022-08-16T10:22:44;3.97;;;2.70;;
72404;SDS011;60395;52.020;113.548;2022-08-16T10:25:47;5.45;;;2.60;;
72404;SDS011;60395;52.020;113.548;2022-08-16T10:29:10;5.43;;;2.40;;
72404;SDS011;60395;52.020;113.548;2022-08-16T10:32:21;7.93;;;2.80;;
72404;SDS011;60395;52.020;113.548;2022-08-16T10:35:31;7.18;;;3.25;;
72404;SDS011;60395;52.020;113.548;2022-08-16T10:38:35;6.75;;;3.08;;
72404;SDS011;60395;52.020;113.548;2022-08-16T10:41:42;4.85;;;2.60;;
72404;SDS011;60395;52.020;113.548;2022-08-16T10:44:46;10.87;;;3.50;;
72404;SDS011;60395;52.020;113.548;2022-08-16T10:47:55;4.50;;;2.90;;
72404;SDS011;60395;52.020;113.548;2022-08-16T10:51:04;9.90;;;5.30;;
72404;SDS011;60395;52.020;113.548;2022-08-16T10:54:08;6.60;;;3.78;;
72404;SDS011;60395;52.020;113.548;2022-08-16T10:57:30;11.13;;;3.92;;
72404;SDS011;60395;52.020;113.548;2022-08-16T11:00:36;38.08;;;16.10;;
72404;SDS011;60395;52.020;113.548;2022-08-16T11:03:42;13.32;;;6.18;;
72404;SDS011;60395;52.020;113.548;2022-08-16T11:06:48;13.13;;;5.10;;
72404;SDS011;60395;52.020;113.548;2022-08-16T11:10:12;8.70;;;3.30;;
72404;SDS011;60395;52.020;113.548;2022-08-16T11:13:38;6.25;;;2.65;;
72404;SDS011;60395;52.020;113.548;2022-08-16T11:17:01;12.32;;;3.33;;
72404;SDS011;60395;52.020;113.548;2022-08-16T11:20:11;7.13;;;2.97;;
72404;SDS011;60395;52.020;113.548;2022-08-16T11:23:35;6.22;;;3.03;;
72404;SDS011;60395;52.020;113.548;2022-08-16T11:26:57;7.95;;;2.58;;
72404;SDS011;60395;52.020;113.548;2022-08-16T11:30:21;6.20;;;3.30;;
72404;SDS011;60395;52.020;113.548;2022-08-16T11:33:39;9.88;;;3.40;;
72404;SDS011;60395;52.020;113.548;2022-08-16T11:36:59;11.20;;;3.63;;
72404;SDS011;60395;52.020;113.548;2022-08-16T11:40:06;8.80;;;3.20;;
72404;SDS011;60395;52.020;113.548;2022-08-16T11:43:15;4.72;;;2.92;;
72404;SDS011;60395;52.020;113.548;2022-08-16T11:46:23;5.47;;;3.10;;
72404;SDS011;60395;52.020;113.548;2022-08-16T11:49:46;7.90;;;3.00;;
72404;SDS011;60395;52.020;113.548;2022-08-16T11:52:50;11.07;;;4.70;;
72404;SDS011;60395;52.020;113.548;2022-08-16T11:55:55;10.00;;;3.03;;
72404;SDS011;60395;52.020;113.548;2022-08-16T11:59:00;6.63;;;3.30;;
72404;SDS011;60395;52.020;113.548;2022-08-16T12:02:03;8.02;;;3.47;;
72404;SDS011;60395;52.020;113.548;2022-08-16T12:05:30;5.65;;;3.47;;
72404;SDS011;60395;52.020;113.548;2022-08-16T12:08:35;8.63;;;3.35;;
72404;SDS011;60395;52.020;113.548;2022-08-16T12:11:38;16.45;;;3.53;;
72404;SDS011;60395;52.020;113.548;2022-08-16T12:14:44;10.93;;;3.80;;
72404;SDS011;60395;52.020;113.548;2022-08-16T12:17:48;10.32;;;3.63;;
72404;SDS011;60395;52.020;113.548;2022-08-16T12:20:55;15.63;;;3.92;;
72404;SDS011;60395;52.020;113.548;2022-08-16T12:23:59;10.68;;;3.40;;
72404;SDS011;60395;52.020;113.548;2022-08-16T12:27:04;14.32;;;3.60;;
72404;SDS011;60395;52.020;113.548;2022-08-16T12:30:10;10.38;;;4.03;;
72404;SDS011;60395;52.020;113.548;2022-08-16T12:33:27;8.63;;;3.28;;
72404;SDS011;60395;52.020;113.548;2022-08-16T12:36:30;13.75;;;6.90;;
72404;SDS011;60395;52.020;113.548;2022-08-16T12:39:33;8.75;;;3.75;;
72404;SDS011;60395;52.020;113.548;2022-08-16T12:42:37;8.83;;;3.47;;
72404;SDS011;60395;52.020;113.548;2022-08-16T12:45:54;15.60;;;3.35;;
72404;SDS011;60395;52.020;113.548;2022-08-16T12:49:00;13.38;;;4.05;;
72404;SDS011;60395;52.020;113.548;2022-08-16T12:52:04;9.27;;;3.05;;
72404;SDS011;60395;52.020;113.548;2022-08-16T12:55:08;17.65;;;3.78;;
72404;SDS011;60395;52.020;113.548;2022-08-16T12:58:15;15.18;;;5.10;;
72404;SDS011;60395;52.020;113.548;2022-08-16T13:01:41;14.48;;;3.75;;
72404;SDS011;60395;52.020;113.548;2022-08-16T13:04:47;13.68;;;3.88;;
72404;SDS011;60395;52.020;113.548;2022-08-16T13:07:51;9.70;;;3.77;;
72404;SDS011;60395;52.020;113.548;2022-08-16T13:10:55;12.95;;;3.80;;
72404;SDS011;60395;52.020;113.548;2022-08-16T13:13:59;13.70;;;4.60;;
72404;SDS011;60395;52.020;113.548;2022-08-16T13:17:06;9.77;;;4.03;;
72404;SDS011;60395;52.020;113.548;2022-08-16T13:20:22;17.40;;;3.75;;
72404;SDS011;60395;52.020;113.548;2022-08-16T13:23:27;18.15;;;5.28;;
72404;SDS011;60395;52.020;113.548;2022-08-16T13:26:30;16.60;;;4.10;;
72404;SDS011;60395;52.020;113.548;2022-08-16T13:29:33;11.82;;;6.28;;
72404;SDS011;60395;52.020;113.548;2022-08-16T13:32:44;7.32;;;3.67;;
72404;SDS011;60395;52.020;113.548;2022-08-16T13:35:52;11.18;;;3.45;;
72404;SDS011;60395;52.020;113.548;2022-08-16T13:39:03;10.82;;;4.38;;
72404;SDS011;60395;52.020;113.548;2022-08-16T13:42:10;10.48;;;4.18;;
72404;SDS011;60395;52.020;113.548;2022-08-16T13:45:14;7.25;;;3.88;;
72404;SDS011;60395;52.020;113.548;2022-08-16T13:48:21;7.57;;;4.10;;
72404;SDS011;60395;52.020;113.548;2022-08-16T13:51:27;7.18;;;3.50;;
72404;SDS011;60395;52.020;113.548;2022-08-16T13:54:31;9.23;;;3.15;;
72404;SDS011;60395;52.020;113.548;2022-08-16T13:57:34;10.30;;;4.93;;
72404;SDS011;60395;52.020;113.548;2022-08-16T14:00:58;9.80;;;4.93;;
72404;SDS011;60395;52.020;113.548;2022-08-16T14:04:02;9.73;;;4.78;;
72404;SDS011;60395;52.020;113.548;2022-08-16T14:07:08;11.82;;;4.18;;
72404;SDS011;60395;52.020;113.548;2022-08-16T14:10:25;6.63;;;3.50;;
72404;SDS011;60395;52.020;113.548;2022-08-16T14:13:28;9.73;;;4.63;;
72404;SDS011;60395;52.020;113.548;2022-08-16T14:16:34;10.50;;;3.55;;
72404;SDS011;60395;52.020;113.548;2022-08-16T14:19:37;9.55;;;5.80;;
72404;SDS011;60395;52.020;113.548;2022-08-16T14:22:46;8.10;;;3.65;;
72404;SDS011;60395;52.020;113.548;2022-08-16T14:25:55;9.65;;;4.53;;
72404;SDS011;60395;52.020;113.548;2022-08-16T14:28:58;9.68;;;4.82;;
72404;SDS011;60395;52.020;113.548;2022-08-16T14:32:05;7.80;;;4.55;;
72404;SDS011;60395;52.020;113.548;2022-08-16T14:35:15;9.32;;;3.90;;
72404;SDS011;60395;52.020;113.548;2022-08-16T14:38:21;5.68;;;3.17;;
72404;SDS011;60395;52.020;113.548;2022-08-16T14:41:30;6.60;;;3.30;;
72404;SDS011;60395;52.020;113.548;2022-08-16T14:44:33;6.03;;;4.00;;
72404;SDS011;60395;52.020;113.548;2022-08-16T14:47:39;8.50;;;3.70;;
72404;SDS011;60395;52.020;113.548;2022-08-16T14:50:42;5.13;;;2.90;;
72404;SDS011;60395;52.020;113.548;2022-08-16T14:53:46;5.07;;;3.17;;
72404;SDS011;60395;52.020;113.548;2022-08-16T14:56:52;5.78;;;3.45;;
72404;SDS011;60395;52.020;113.548;2022-08-16T14:59:56;5.25;;;3.53;;
72404;SDS011;60395;52.020;113.548;2022-08-16T15:03:07;6.60;;;3.45;;
72404;SDS011;60395;52.020;113.548;2022-08-16T15:06:11;13.13;;;3.45;;
72404;SDS011;60395;52.020;113.548;2022-08-16T15:09:17;10.18;;;3.97;;
72404;SDS011;60395;52.020;113.548;2022-08-16T15:12:23;5.68;;;3.72;;
72404;SDS011;60395;52.020;113.548;2022-08-16T15:15:35;5.85;;;3.05;;
72404;SDS011;60395;52.020;113.548;2022-08-16T15:18:38;5.43;;;3.53;;
72404;SDS011;60395;52.020;113.548;2022-08-16T15:21:41;11.60;;;7.60;;
72404;SDS011;60395;52.020;113.548;2022-08-16T15:24:44;5.47;;;2.63;;
72404;SDS011;60395;52.020;113.548;2022-08-16T15:27:48;4.95;;;2.67;;
72404;SDS011;60395;52.020;113.548;2022-08-16T15:30:56;8.18;;;2.75;;
72404;SDS011;60395;52.020;113.548;2022-08-16T15:34:04;6.97;;;2.83;;
72404;SDS011;60395;52.020;113.548;2022-08-16T15:37:14;8.70;;;4.35;;
72404;SDS011;60395;52.020;113.548;2022-08-16T15:40:18;10.13;;;5.15;;
72404;SDS011;60395;52.020;113.548;2022-08-16T15:43:35;20.67;;;10.13;;
72404;SDS011;60395;52.020;113.548;2022-08-16T15:46:41;10.38;;;6.63;;
72404;SDS011;60395;52.020;113.548;2022-08-16T15:49:58;8.77;;;3.03;;
72404;SDS011;60395;52.020;113.548;2022-08-16T15:53:10;6.47;;;3.60;;
72404;SDS011;60395;52.020;113.548;2022-08-16T15:56:16;9.10;;;3.33;;
72404;SDS011;60395;52.020;113.548;2022-08-16T16:02:27;7.55;;;2.83;;
72404;SDS011;60395;52.020;113.548;2022-08-16T16:05:33;9.88;;;3.55;;
72404;SDS011;60395;52.020;113.548;2022-08-16T16:08:37;8.57;;;3.75;;
72404;SDS011;60395;52.020;113.548;2022-08-16T16:11:45;10.00;;;3.92;;
72404;SDS011;60395;52.020;113.548;2022-08-16T16:14:50;10.82;;;3.75;;
72404;SDS011;60395;52.020;113.548;2022-08-16T16:17:54;8.57;;;3.20;;
72404;SDS011;60395;52.020;113.548;2022-08-16T16:21:01;4.72;;;2.38;;
72404;SDS011;60395;52.020;113.548;2022-08-16T16:24:10;4.97;;;2.40;;
72404;SDS011;60395;52.020;113.548;2022-08-16T16:27:24;5.95;;;2.47;;
72404;SDS011;60395;52.020;113.548;2022-08-16T16:30:28;2.10;;;1.57;;
72404;SDS011;60395;52.020;113.548;2022-08-16T16:33:46;3.90;;;1.42;;
72404;SDS011;60395;52.020;113.548;2022-08-16T16:36:51;2.55;;;1.25;;
72404;SDS011;60395;52.020;113.548;2022-08-16T16:39:55;2.43;;;1.10;;
72404;SDS011;60395;52.020;113.548;2022-08-16T16:42:59;2.25;;;1.08;;
72404;SDS011;60395;52.020;113.548;2022-08-16T16:46:05;2.42;;;1.40;;
72404;SDS011;60395;52.020;113.548;2022-08-16T16:49:32;1.65;;;1.15;;
72404;SDS011;60395;52.020;113.548;2022-08-16T16:52:42;3.05;;;1.05;;
72404;SDS011;60395;52.020;113.548;2022-08-16T16:55:48;3.70;;;1.20;;
72404;SDS011;60395;52.020;113.548;2022-08-16T16:58:53;1.58;;;1.13;;
72404;SDS011;60395;52.020;113.548;2022-08-16T17:02:02;4.07;;;1.20;;
72404;SDS011;60395;52.020;113.548;2022-08-16T17:05:25;2.17;;;1.10;;
72404;SDS011;60395;52.020;113.548;2022-08-16T17:08:33;2.42;;;1.15;;
72404;SDS011;60395;52.020;113.548;2022-08-16T17:11:37;2.95;;;1.02;;
72404;SDS011;60395;52.020;113.548;2022-08-16T17:14:42;3.75;;;1.50;;
72404;SDS011;60395;52.020;113.548;2022-08-16T17:17:46;2.20;;;1.27;;
72404;SDS011;60395;52.020;113.548;2022-08-16T17:21:03;1.90;;;1.30;;
72404;SDS011;60395;52.020;113.548;2022-08-16T17:24:07;3.45;;;1.00;;
72404;SDS011;60395;52.020;113.548;2022-08-16T17:27:20;1.20;;;0.90;;
72404;SDS011;60395;52.020;113.548;2022-08-16T17:33:46;1.88;;;0.90;;
72404;SDS011;60395;52.020;113.548;2022-08-16T17:36:56;5.80;;;0.93;;
72404;SDS011;60395;52.020;113.548;2022-08-16T17:40:00;1.35;;;0.98;;
72404;SDS011;60395;52.020;113.548;2022-08-16T17:43:07;1.02;;;0.80;;
72404;SDS011;60395;52.020;113.548;2022-08-16T17:46:12;1.15;;;0.80;;
72404;SDS011;60395;52.020;113.548;2022-08-16T17:49:37;1.42;;;1.00;;
72404;SDS011;60395;52.020;113.548;2022-08-16T17:52:40;1.17;;;0.80;;
72404;SDS011;60395;52.020;113.548;2022-08-16T17:55:50;3.05;;;1.00;;
72404;SDS011;60395;52.020;113.548;2022-08-16T17:58:55;3.75;;;1.80;;
72404;SDS011;60395;52.020;113.548;2022-08-16T18:01:58;3.13;;;1.23;;
72404;SDS011;60395;52.020;113.548;2022-08-16T18:05:16;4.07;;;1.60;;
72404;SDS011;60395;52.020;113.548;2022-08-16T18:08:21;3.72;;;2.25;;
72404;SDS011;60395;52.020;113.548;2022-08-16T18:11:32;6.32;;;2.50;;
72404;SDS011;60395;52.020;113.548;2022-08-16T18:14:43;6.43;;;2.05;;
72404;SDS011;60395;52.020;113.548;2022-08-16T18:17:53;4.90;;;1.83;;
72404;SDS011;60395;52.020;113.548;2022-08-16T18:20:56;3.80;;;1.60;;
72404;SDS011;60395;52.020;113.548;2022-08-16T18:24:18;2.55;;;1.50;;
72404;SDS011;60395;52.020;113.548;2022-08-16T18:27:21;4.45;;;1.30;;
72404;SDS011;60395;52.020;113.548;2022-08-16T18:30:27;1.70;;;1.10;;
72404;SDS011;60395;52.020;113.548;2022-08-16T18:33:30;1.92;;;1.08;;
72404;SDS011;60395;52.020;113.548;2022-08-16T18:36:44;1.60;;;1.20;;
72404;SDS011;60395;52.020;113.548;2022-08-16T18:39:47;2.75;;;1.00;;
72404;SDS011;60395;52.020;113.548;2022-08-16T18:42:52;1.80;;;1.20;;